This is the latest recevied weather packets stored in our database for station/object K7GFH-13. If no packets are shown the sender has not sent any weather packets the latest 10 day(s).
| Time | Temp. | Humidity | Pressure | Rain* | Wind** | Luminosity | Snow |
|---|---|---|---|---|---|---|---|
| 1777615102 | 17.78° C | 40% | 1017 hPa | 0 mm | - | 0 W/m² | - |
| 1777614201 | 18.33° C | 40% | 1017 hPa | 0 mm | - | 0 W/m² | - |
| 1777613302 | 18.33° C | 39% | 1016.9 hPa | 0 mm | - | 0 W/m² | - |
| 1777612397 | 19.44° C | 37% | 1017.2 hPa | 0 mm | - | 0 W/m² | - |
| 1777611495 | 19.44° C | 37% | 1016.8 hPa | 0 mm | - | 0 W/m² | - |
| 1777610596 | 20.56° C | 34% | 1017 hPa | 0 mm | - | 0 W/m² | - |
| 1777609694 | 20.56° C | 33% | 1016.9 hPa | 0 mm | - | 0 W/m² | - |
| 1777608792 | 20° C | 36% | 1016.6 hPa | 0 mm | - | 0 W/m² | - |
| 1777607889 | 20.56° C | 35% | 1016.3 hPa | 0 mm | - | 0 W/m² | - |
| 1777606983 | 21.11° C | 34% | 1016.4 hPa | 0 mm | - | 0 W/m² | - |
| 1777606081 | 21.11° C | 34% | 1015.9 hPa | 0 mm | - | 1 W/m² | - |
| 1777605180 | 22.22° C | 33% | 1015.8 hPa | 0 mm | - | 3 W/m² | - |
| 1777604279 | 22.78° C | 33% | 1016 hPa | 0 mm | - | 9 W/m² | - |
| 1777603374 | 23.33° C | 31% | 1015.9 hPa | 0 mm | - | 17 W/m² | - |
| 1777602472 | 23.89° C | 29% | 1016 hPa | 0 mm | - | 29 W/m² | - |
| 1777601570 | 24.44° C | 30% | 1016 hPa | 0 mm | - | 39 W/m² | - |
| 1777600671 | 25° C | 27% | 1016 hPa | 0 mm | - | 55 W/m² | - |
| 1777599770 | 25.56° C | 27% | 1016.2 hPa | 0 mm | - | 91 W/m² | - |
| 1777598870 | 25.56° C | 27% | 1016.2 hPa | 0 mm | - | 115 W/m² | - |
| 1777597968 | 26.11° C | 27% | 1016.2 hPa | 0 mm | - | 180 W/m² | - |
| 1777597065 | 26.67° C | 26% | 1016.3 hPa | 0 mm | - | 205 W/m² | - |
| 1777596161 | 26.11° C | 26% | 1016.4 hPa | 0 mm | - | 264 W/m² | - |
| 1777595260 | 26.11° C | 27% | 1016.4 hPa | 0 mm | - | 303 W/m² | - |
| 1777594355 | 26.11° C | 27% | 1016.4 hPa | 0 mm | - | 345 W/m² | - |
| 1777593456 | 26.67° C | 29% | 1016.7 hPa | 0 mm | - | 386 W/m² | - |
* Rain latest hour (hover to see other rain measurements)
** Current wind speed in m/s (hover to see current wind gust speed)